sensor_id;sensor_type;location;lat;lon;timestamp;pressure;altitude;pressure_sealevel;temperature;humidity
36138;BME280;22194;50.046;21.954;2022-09-09T00:01:32;98580.30;;;18.40;61.08
36138;BME280;22194;50.046;21.954;2022-09-09T00:04:26;98576.80;;;18.37;61.18
36138;BME280;22194;50.046;21.954;2022-09-09T00:09:44;98576.41;;;18.31;61.31
36138;BME280;22194;50.046;21.954;2022-09-09T00:12:32;98579.88;;;18.29;61.26
36138;BME280;22194;50.046;21.954;2022-09-09T00:15:14;98585.60;;;18.26;61.63
36138;BME280;22194;50.046;21.954;2022-09-09T00:26:02;98588.71;;;18.17;61.86
36138;BME280;22194;50.046;21.954;2022-09-09T00:28:37;98594.68;;;18.15;61.76
36138;BME280;22194;50.046;21.954;2022-09-09T00:31:18;98595.34;;;18.12;62.04
36138;BME280;22194;50.046;21.954;2022-09-09T00:33:49;98595.11;;;18.10;61.99
36138;BME280;22194;50.046;21.954;2022-09-09T00:36:22;98591.64;;;18.09;62.21
36138;BME280;22194;50.046;21.954;2022-09-09T00:38:56;98595.52;;;18.09;62.12
36138;BME280;22194;50.046;21.954;2022-09-09T00:42:04;98591.44;;;18.09;62.28
36138;BME280;22194;50.046;21.954;2022-09-09T00:44:38;98589.83;;;18.09;62.39
36138;BME280;22194;50.046;21.954;2022-09-09T00:47:33;98591.88;;;18.08;62.39
36138;BME280;22194;50.046;21.954;2022-09-09T00:52:57;98590.73;;;18.06;62.61
36138;BME280;22194;50.046;21.954;2022-09-09T00:55:45;98585.64;;;18.03;62.58
36138;BME280;22194;50.046;21.954;2022-09-09T00:58:16;98583.78;;;18.02;62.81
36138;BME280;22194;50.046;21.954;2022-09-09T01:00:47;98581.50;;;18.00;62.57
36138;BME280;22194;50.046;21.954;2022-09-09T01:06:39;98588.13;;;17.95;62.91
36138;BME280;22194;50.046;21.954;2022-09-09T01:09:12;98599.06;;;17.93;63.04
36138;BME280;22194;50.046;21.954;2022-09-09T01:12:16;98598.27;;;17.92;62.99
36138;BME280;22194;50.046;21.954;2022-09-09T01:14:48;98594.67;;;17.91;63.01
36138;BME280;22194;50.046;21.954;2022-09-09T01:17:44;98597.46;;;17.90;63.11
36138;BME280;22194;50.046;21.954;2022-09-09T01:20:25;98595.29;;;17.87;63.20
36138;BME280;22194;50.046;21.954;2022-09-09T01:23:06;98600.46;;;17.84;63.17
36138;BME280;22194;50.046;21.954;2022-09-09T01:26:15;98601.98;;;17.83;63.20
36138;BME280;22194;50.046;21.954;2022-09-09T01:28:48;98604.90;;;17.79;63.36
36138;BME280;22194;50.046;21.954;2022-09-09T01:31:21;98600.36;;;17.78;63.48
36138;BME280;22194;50.046;21.954;2022-09-09T01:33:50;98600.77;;;17.76;63.00
36138;BME280;22194;50.046;21.954;2022-09-09T01:36:31;98604.31;;;17.70;63.27
36138;BME280;22194;50.046;21.954;2022-09-09T01:39:03;98597.19;;;17.68;63.58
36138;BME280;22194;50.046;21.954;2022-09-09T01:41:31;98602.57;;;17.68;63.48
36138;BME280;22194;50.046;21.954;2022-09-09T01:44:00;98605.25;;;17.66;63.37
36138;BME280;22194;50.046;21.954;2022-09-09T01:46:28;98609.83;;;17.64;63.50
36138;BME280;22194;50.046;21.954;2022-09-09T01:48:59;98615.80;;;17.63;63.51
36138;BME280;22194;50.046;21.954;2022-09-09T01:51:30;98614.23;;;17.63;63.77
36138;BME280;22194;50.046;21.954;2022-09-09T01:53:59;98610.83;;;17.63;63.84
36138;BME280;22194;50.046;21.954;2022-09-09T02:05:00;98608.88;;;17.61;64.07
36138;BME280;22194;50.046;21.954;2022-09-09T02:07:38;98610.26;;;17.61;64.25
36138;BME280;22194;50.046;21.954;2022-09-09T02:10:45;98605.93;;;17.62;64.17
36138;BME280;22194;50.046;21.954;2022-09-09T02:13:17;98604.52;;;17.61;64.26
36138;BME280;22194;50.046;21.954;2022-09-09T02:15:53;98606.27;;;17.62;64.22
36138;BME280;22194;50.046;21.954;2022-09-09T02:19:56;98610.33;;;17.62;64.35
36138;BME280;22194;50.046;21.954;2022-09-09T02:21:55;98602.50;;;17.62;64.29
36138;BME280;22194;50.046;21.954;2022-09-09T02:24:26;98604.02;;;17.61;64.43
36138;BME280;22194;50.046;21.954;2022-09-09T02:26:57;98599.53;;;17.59;64.47
36138;BME280;22194;50.046;21.954;2022-09-09T02:29:39;98597.81;;;17.58;64.35
36138;BME280;22194;50.046;21.954;2022-09-09T02:32:14;98599.70;;;17.58;64.58
36138;BME280;22194;50.046;21.954;2022-09-09T02:34:47;98598.13;;;17.58;64.59
36138;BME280;22194;50.046;21.954;2022-09-09T02:37:19;98599.58;;;17.57;64.65
36138;BME280;22194;50.046;21.954;2022-09-09T02:39:48;98603.23;;;17.57;64.59
36138;BME280;22194;50.046;21.954;2022-09-09T02:42:16;98611.06;;;17.57;64.55
36138;BME280;22194;50.046;21.954;2022-09-09T02:44:45;98610.20;;;17.57;64.73
36138;BME280;22194;50.046;21.954;2022-09-09T02:47:36;98610.56;;;17.56;64.79
36138;BME280;22194;50.046;21.954;2022-09-09T02:53:18;98610.55;;;17.55;64.79
36138;BME280;22194;50.046;21.954;2022-09-09T02:56:09;98614.36;;;17.55;64.87
36138;BME280;22194;50.046;21.954;2022-09-09T02:58:42;98620.70;;;17.54;65.05
36138;BME280;22194;50.046;21.954;2022-09-09T03:01:10;98614.90;;;17.54;64.98
36138;BME280;22194;50.046;21.954;2022-09-09T03:03:40;98617.73;;;17.55;64.95
36138;BME280;22194;50.046;21.954;2022-09-09T03:06:10;98616.31;;;17.55;65.09
36138;BME280;22194;50.046;21.954;2022-09-09T03:08:40;98621.85;;;17.55;65.05
36138;BME280;22194;50.046;21.954;2022-09-09T03:11:17;98626.05;;;17.54;65.12
36138;BME280;22194;50.046;21.954;2022-09-09T03:13:45;98628.03;;;17.54;65.19
36138;BME280;22194;50.046;21.954;2022-09-09T03:16:12;98624.55;;;17.53;65.17
36138;BME280;22194;50.046;21.954;2022-09-09T03:18:40;98623.53;;;17.53;65.10
36138;BME280;22194;50.046;21.954;2022-09-09T03:21:08;98620.54;;;17.52;65.32
36138;BME280;22194;50.046;21.954;2022-09-09T03:23:35;98616.31;;;17.52;65.24
36138;BME280;22194;50.046;21.954;2022-09-09T03:26:03;98624.25;;;17.51;65.33
36138;BME280;22194;50.046;21.954;2022-09-09T03:28:31;98619.09;;;17.49;65.28
36138;BME280;22194;50.046;21.954;2022-09-09T03:31:01;98620.73;;;17.46;65.48
36138;BME280;22194;50.046;21.954;2022-09-09T03:33:30;98621.28;;;17.44;65.33
36138;BME280;22194;50.046;21.954;2022-09-09T03:35:58;98618.52;;;17.41;65.24
36138;BME280;22194;50.046;21.954;2022-09-09T03:38:26;98621.77;;;17.33;65.19
36138;BME280;22194;50.046;21.954;2022-09-09T03:40:56;98625.48;;;17.26;65.34
36138;BME280;22194;50.046;21.954;2022-09-09T03:43:26;98624.30;;;17.25;65.56
36138;BME280;22194;50.046;21.954;2022-09-09T03:45:54;98623.11;;;17.27;65.43
36138;BME280;22194;50.046;21.954;2022-09-09T03:48:26;98624.90;;;17.27;65.72
36138;BME280;22194;50.046;21.954;2022-09-09T03:50:56;98622.54;;;17.27;65.76
36138;BME280;22194;50.046;21.954;2022-09-09T03:53:26;98621.56;;;17.28;65.80
36138;BME280;22194;50.046;21.954;2022-09-09T03:55:56;98620.73;;;17.29;65.83
36138;BME280;22194;50.046;21.954;2022-09-09T03:58:27;98619.86;;;17.30;65.86
36138;BME280;22194;50.046;21.954;2022-09-09T04:00:58;98619.13;;;17.31;65.69
36138;BME280;22194;50.046;21.954;2022-09-09T04:03:28;98619.36;;;17.32;65.72
36138;BME280;22194;50.046;21.954;2022-09-09T04:05:59;98618.20;;;17.32;66.07
36138;BME280;22194;50.046;21.954;2022-09-09T04:08:28;98619.55;;;17.33;65.96
36138;BME280;22194;50.046;21.954;2022-09-09T04:10:59;98616.30;;;17.33;66.04
36138;BME280;22194;50.046;21.954;2022-09-09T04:13:29;98618.25;;;17.33;66.04
36138;BME280;22194;50.046;21.954;2022-09-09T04:15:59;98615.35;;;17.34;66.12
36138;BME280;22194;50.046;21.954;2022-09-09T04:18:28;98619.77;;;17.34;66.03
36138;BME280;22194;50.046;21.954;2022-09-09T04:20:57;98622.27;;;17.34;66.30
36138;BME280;22194;50.046;21.954;2022-09-09T04:23:27;98621.60;;;17.34;66.28
36138;BME280;22194;50.046;21.954;2022-09-09T04:25:58;98623.77;;;17.34;66.26
36138;BME280;22194;50.046;21.954;2022-09-09T04:28:29;98620.69;;;17.34;66.30
36138;BME280;22194;50.046;21.954;2022-09-09T04:31:16;98622.40;;;17.33;66.41
36138;BME280;22194;50.046;21.954;2022-09-09T04:33:45;98620.52;;;17.32;66.38
36138;BME280;22194;50.046;21.954;2022-09-09T04:36:14;98620.80;;;17.32;66.42
36138;BME280;22194;50.046;21.954;2022-09-09T04:38:42;98620.05;;;17.32;66.37
36138;BME280;22194;50.046;21.954;2022-09-09T04:41:12;98622.21;;;17.32;66.45
36138;BME280;22194;50.046;21.954;2022-09-09T04:43:40;98625.30;;;17.31;66.62
36138;BME280;22194;50.046;21.954;2022-09-09T04:46:08;98625.13;;;17.31;66.56
36138;BME280;22194;50.046;21.954;2022-09-09T04:48:37;98632.13;;;17.31;66.48
36138;BME280;22194;50.046;21.954;2022-09-09T04:51:06;98633.64;;;17.31;66.74
36138;BME280;22194;50.046;21.954;2022-09-09T04:53:35;98639.75;;;17.31;66.65
36138;BME280;22194;50.046;21.954;2022-09-09T04:56:05;98640.69;;;17.30;66.73
36138;BME280;22194;50.046;21.954;2022-09-09T04:58:34;98646.87;;;17.29;66.52
36138;BME280;22194;50.046;21.954;2022-09-09T05:01:20;98652.11;;;17.29;66.73
36138;BME280;22194;50.046;21.954;2022-09-09T05:03:52;98652.74;;;17.28;66.79
36138;BME280;22194;50.046;21.954;2022-09-09T05:06:24;98655.87;;;17.27;66.79
36138;BME280;22194;50.046;21.954;2022-09-09T05:08:53;98653.15;;;17.26;66.80
36138;BME280;22194;50.046;21.954;2022-09-09T05:11:23;98657.95;;;17.26;66.83
36138;BME280;22194;50.046;21.954;2022-09-09T05:13:54;98662.21;;;17.26;66.77
36138;BME280;22194;50.046;21.954;2022-09-09T05:16:24;98664.48;;;17.27;66.97
36138;BME280;22194;50.046;21.954;2022-09-09T05:18:54;98664.91;;;17.26;66.88
36138;BME280;22194;50.046;21.954;2022-09-09T05:21:24;98666.02;;;17.26;67.01
36138;BME280;22194;50.046;21.954;2022-09-09T05:23:55;98664.08;;;17.25;67.12
36138;BME280;22194;50.046;21.954;2022-09-09T05:26:23;98668.67;;;17.26;67.06
36138;BME280;22194;50.046;21.954;2022-09-09T05:28:56;98669.67;;;17.27;66.99
36138;BME280;22194;50.046;21.954;2022-09-09T05:31:25;98665.75;;;17.27;67.18
36138;BME280;22194;50.046;21.954;2022-09-09T05:33:57;98668.48;;;17.26;67.17
36138;BME280;22194;50.046;21.954;2022-09-09T05:36:26;98670.89;;;17.27;67.16
36138;BME280;22194;50.046;21.954;2022-09-09T05:38:55;98669.61;;;17.28;67.10
36138;BME280;22194;50.046;21.954;2022-09-09T05:41:24;98673.87;;;17.28;67.29
36138;BME280;22194;50.046;21.954;2022-09-09T05:43:52;98673.72;;;17.28;67.27
36138;BME280;22194;50.046;21.954;2022-09-09T05:46:24;98675.64;;;17.29;67.50
36138;BME280;22194;50.046;21.954;2022-09-09T05:48:53;98676.13;;;17.29;67.27
36138;BME280;22194;50.046;21.954;2022-09-09T05:51:25;98674.29;;;17.29;67.44
36138;BME280;22194;50.046;21.954;2022-09-09T05:53:55;98675.10;;;17.30;67.55
36138;BME280;22194;50.046;21.954;2022-09-09T05:56:32;98676.58;;;17.30;67.49
36138;BME280;22194;50.046;21.954;2022-09-09T05:59:02;98675.57;;;17.31;67.45
36138;BME280;22194;50.046;21.954;2022-09-09T06:01:36;98677.05;;;17.32;67.45
36138;BME280;22194;50.046;21.954;2022-09-09T06:04:04;98680.77;;;17.35;67.68
36138;BME280;22194;50.046;21.954;2022-09-09T06:06:38;98684.73;;;17.39;67.67
36138;BME280;22194;50.046;21.954;2022-09-09T06:09:09;98687.44;;;17.42;67.74
36138;BME280;22194;50.046;21.954;2022-09-09T06:11:41;98684.36;;;17.44;67.81
36138;BME280;22194;50.046;21.954;2022-09-09T06:14:10;98688.92;;;17.45;67.84
36138;BME280;22194;50.046;21.954;2022-09-09T06:16:38;98686.09;;;17.47;67.99
36138;BME280;22194;50.046;21.954;2022-09-09T06:19:07;98688.81;;;17.48;67.93
36138;BME280;22194;50.046;21.954;2022-09-09T06:21:39;98692.24;;;17.51;67.67
36138;BME280;22194;50.046;21.954;2022-09-09T06:24:10;98687.40;;;17.52;67.86
36138;BME280;22194;50.046;21.954;2022-09-09T06:26:41;98694.98;;;17.53;68.07
36138;BME280;22194;50.046;21.954;2022-09-09T06:29:13;98698.08;;;17.55;68.17
36138;BME280;22194;50.046;21.954;2022-09-09T06:31:40;98700.55;;;17.57;68.36
36138;BME280;22194;50.046;21.954;2022-09-09T06:34:12;98707.75;;;17.60;68.03
36138;BME280;22194;50.046;21.954;2022-09-09T06:36:43;98706.86;;;17.60;68.19
36138;BME280;22194;50.046;21.954;2022-09-09T06:39:17;98709.79;;;17.58;68.37
36138;BME280;22194;50.046;21.954;2022-09-09T06:41:48;98708.15;;;17.58;68.13
36138;BME280;22194;50.046;21.954;2022-09-09T06:44:20;98711.70;;;17.58;68.45
36138;BME280;22194;50.046;21.954;2022-09-09T06:46:48;98717.80;;;17.59;68.28
36138;BME280;22194;50.046;21.954;2022-09-09T06:49:18;98720.91;;;17.57;68.18
36138;BME280;22194;50.046;21.954;2022-09-09T06:51:49;98725.79;;;17.57;68.51
36138;BME280;22194;50.046;21.954;2022-09-09T06:54:20;98725.34;;;17.58;68.45
36138;BME280;22194;50.046;21.954;2022-09-09T06:56:53;98729.67;;;17.56;68.53
36138;BME280;22194;50.046;21.954;2022-09-09T06:59:22;98736.34;;;17.55;68.46
36138;BME280;22194;50.046;21.954;2022-09-09T07:01:52;98738.24;;;17.55;68.33
36138;BME280;22194;50.046;21.954;2022-09-09T07:04:24;98739.29;;;17.55;68.28
36138;BME280;22194;50.046;21.954;2022-09-09T07:06:55;98741.63;;;17.53;68.49
36138;BME280;22194;50.046;21.954;2022-09-09T07:09:24;98743.16;;;17.54;68.54
36138;BME280;22194;50.046;21.954;2022-09-09T07:11:54;98748.36;;;17.55;68.34
36138;BME280;22194;50.046;21.954;2022-09-09T07:14:26;98749.92;;;17.56;68.65
36138;BME280;22194;50.046;21.954;2022-09-09T07:16:57;98754.06;;;17.58;68.39
36138;BME280;22194;50.046;21.954;2022-09-09T07:19:29;98755.27;;;17.60;68.84
36138;BME280;22194;50.046;21.954;2022-09-09T07:21:57;98756.59;;;17.62;68.61
36138;BME280;22194;50.046;21.954;2022-09-09T07:24:27;98756.34;;;17.68;68.72
36138;BME280;22194;50.046;21.954;2022-09-09T07:27:00;98757.88;;;17.72;68.86
36138;BME280;22194;50.046;21.954;2022-09-09T07:29:28;98765.65;;;17.77;68.64
36138;BME280;22194;50.046;21.954;2022-09-09T07:32:00;98766.12;;;17.89;68.71
36138;BME280;22194;50.046;21.954;2022-09-09T07:34:28;98767.23;;;18.06;68.50
36138;BME280;22194;50.046;21.954;2022-09-09T07:36:55;98766.20;;;18.19;68.31
36138;BME280;22194;50.046;21.954;2022-09-09T07:39:28;98764.59;;;18.30;68.50
36138;BME280;22194;50.046;21.954;2022-09-09T07:41:59;98765.52;;;18.45;68.77
36138;BME280;22194;50.046;21.954;2022-09-09T07:44:27;98764.80;;;18.63;68.78
36138;BME280;22194;50.046;21.954;2022-09-09T07:46:59;98767.59;;;18.85;68.73
36138;BME280;22194;50.046;21.954;2022-09-09T07:49:29;98772.21;;;19.01;68.48
36138;BME280;22194;50.046;21.954;2022-09-09T07:52:02;98772.86;;;19.21;68.35
36138;BME280;22194;50.046;21.954;2022-09-09T07:54:33;98770.64;;;19.36;68.39
36138;BME280;22194;50.046;21.954;2022-09-09T07:57:04;98769.19;;;19.96;67.70
36138;BME280;22194;50.046;21.954;2022-09-09T07:59:32;98768.89;;;20.49;67.79
36138;BME280;22194;50.046;21.954;2022-09-09T08:02:08;98777.71;;;21.27;67.21
36138;BME280;22194;50.046;21.954;2022-09-09T08:04:37;98777.13;;;22.09;66.85
36138;BME280;22194;50.046;21.954;2022-09-09T08:07:06;98782.81;;;22.43;67.49
36138;BME280;22194;50.046;21.954;2022-09-09T08:09:34;98782.27;;;22.52;67.55
36138;BME280;22194;50.046;21.954;2022-09-09T08:12:02;98787.72;;;22.37;67.86
36138;BME280;22194;50.046;21.954;2022-09-09T08:14:32;98789.83;;;22.35;67.62
36138;BME280;22194;50.046;21.954;2022-09-09T08:17:00;98787.90;;;22.34;67.66
36138;BME280;22194;50.046;21.954;2022-09-09T08:19:34;98791.20;;;22.21;67.50
36138;BME280;22194;50.046;21.954;2022-09-09T08:22:03;98792.45;;;22.08;67.34
36138;BME280;22194;50.046;21.954;2022-09-09T08:24:33;98793.05;;;21.86;67.44
36138;BME280;22194;50.046;21.954;2022-09-09T08:27:03;98790.42;;;21.63;67.34
36138;BME280;22194;50.046;21.954;2022-09-09T08:29:31;98795.91;;;21.45;67.63
36138;BME280;22194;50.046;21.954;2022-09-09T08:32:02;98804.56;;;21.34;67.77
36138;BME280;22194;50.046;21.954;2022-09-09T08:34:30;98806.46;;;21.23;67.31
36138;BME280;22194;50.046;21.954;2022-09-09T08:37:02;98802.98;;;21.15;67.03
36138;BME280;22194;50.046;21.954;2022-09-09T08:39:32;98801.00;;;21.35;66.74
36138;BME280;22194;50.046;21.954;2022-09-09T08:42:11;98794.44;;;21.55;66.69
36138;BME280;22194;50.046;21.954;2022-09-09T08:45:04;98791.30;;;21.82;66.59
36138;BME280;22194;50.046;21.954;2022-09-09T08:50:36;98787.41;;;22.18;66.23
36138;BME280;22194;50.046;21.954;2022-09-09T08:53:35;98776.22;;;22.56;66.18
36138;BME280;22194;50.046;21.954;2022-09-09T08:56:16;98776.63;;;22.92;65.91
36138;BME280;22194;50.046;21.954;2022-09-09T08:58:53;98777.44;;;23.27;65.78
36138;BME280;22194;50.046;21.954;2022-09-09T09:01:25;98774.63;;;23.69;65.91
36138;BME280;22194;50.046;21.954;2022-09-09T09:12:15;98781.89;;;23.42;65.53
36138;BME280;22194;50.046;21.954;2022-09-09T09:14:49;98784.76;;;23.40;65.59
36138;BME280;22194;50.046;21.954;2022-09-09T09:17:23;98783.98;;;23.80;65.15
36138;BME280;22194;50.046;21.954;2022-09-09T09:19:52;98790.35;;;23.91;65.12
36138;BME280;22194;50.046;21.954;2022-09-09T09:22:48;98789.34;;;23.97;64.88
36138;BME280;22194;50.046;21.954;2022-09-09T09:25:35;98785.77;;;24.38;64.70
36138;BME280;22194;50.046;21.954;2022-09-09T09:28:23;98787.91;;;24.43;64.75
36138;BME280;22194;50.046;21.954;2022-09-09T09:31:13;98792.96;;;24.44;64.85
36138;BME280;22194;50.046;21.954;2022-09-09T09:33:54;98800.10;;;24.35;64.37
36138;BME280;22194;50.046;21.954;2022-09-09T09:36:34;98800.14;;;24.21;64.15
36138;BME280;22194;50.046;21.954;2022-09-09T09:39:05;98796.48;;;24.45;63.97
36138;BME280;22194;50.046;21.954;2022-09-09T09:41:57;98796.68;;;24.75;63.17
36138;BME280;22194;50.046;21.954;2022-09-09T09:44:30;98795.70;;;25.12;63.36
36138;BME280;22194;50.046;21.954;2022-09-09T09:47:13;98791.02;;;25.29;63.24
36138;BME280;22194;50.046;21.954;2022-09-09T09:49:54;98799.67;;;25.19;63.00
36138;BME280;22194;50.046;21.954;2022-09-09T09:52:28;98800.52;;;25.14;62.84
36138;BME280;22194;50.046;21.954;2022-09-09T09:55:01;98799.63;;;24.99;62.88
36138;BME280;22194;50.046;21.954;2022-09-09T09:57:41;98800.63;;;25.06;62.88
36138;BME280;22194;50.046;21.954;2022-09-09T10:00:18;98805.79;;;25.02;62.38
36138;BME280;22194;50.046;21.954;2022-09-09T10:02:50;98807.84;;;24.96;62.25
36138;BME280;22194;50.046;21.954;2022-09-09T10:05:28;98808.05;;;24.99;62.25
36138;BME280;22194;50.046;21.954;2022-09-09T10:08:14;98810.99;;;24.90;61.93
36138;BME280;22194;50.046;21.954;2022-09-09T10:11:10;98812.67;;;24.75;61.78
36138;BME280;22194;50.046;21.954;2022-09-09T10:14:17;98810.62;;;24.53;61.58
36138;BME280;22194;50.046;21.954;2022-09-09T10:19:50;98799.80;;;24.18;60.88
36138;BME280;22194;50.046;21.954;2022-09-09T10:22:35;98799.13;;;24.00;60.82
36138;BME280;22194;50.046;21.954;2022-09-09T10:25:11;98799.54;;;23.91;60.88
36138;BME280;22194;50.046;21.954;2022-09-09T10:31:21;98797.05;;;23.79;60.57
36138;BME280;22194;50.046;21.954;2022-09-09T10:36:39;98799.67;;;23.64;60.12
36138;BME280;22194;50.046;21.954;2022-09-09T10:44:49;98799.04;;;23.42;59.92
36138;BME280;22194;50.046;21.954;2022-09-09T10:47:57;98802.77;;;23.27;59.60
36138;BME280;22194;50.046;21.954;2022-09-09T10:50:50;98808.01;;;23.14;59.67
36138;BME280;22194;50.046;21.954;2022-09-09T10:56:25;98805.10;;;22.94;59.47
36138;BME280;22194;50.046;21.954;2022-09-09T10:59:19;98807.90;;;22.88;59.28
36138;BME280;22194;50.046;21.954;2022-09-09T11:07:24;98822.63;;;22.62;59.24
36138;BME280;22194;50.046;21.954;2022-09-09T11:10:04;98818.95;;;22.55;59.35
36138;BME280;22194;50.046;21.954;2022-09-09T11:12:36;98818.53;;;22.47;58.72
36138;BME280;22194;50.046;21.954;2022-09-09T11:15:28;98822.80;;;22.40;59.09
36138;BME280;22194;50.046;21.954;2022-09-09T11:18:06;98827.23;;;22.38;58.99
36138;BME280;22194;50.046;21.954;2022-09-09T11:20:47;98832.84;;;22.35;58.91
36138;BME280;22194;50.046;21.954;2022-09-09T11:23:24;98837.61;;;22.33;58.84
36138;BME280;22194;50.046;21.954;2022-09-09T11:26:04;98837.00;;;22.30;58.88
36138;BME280;22194;50.046;21.954;2022-09-09T11:29:11;98838.84;;;22.28;58.84
36138;BME280;22194;50.046;21.954;2022-09-09T11:34:54;98840.42;;;22.23;58.62
36138;BME280;22194;50.046;21.954;2022-09-09T11:37:43;98839.34;;;22.22;58.50
36138;BME280;22194;50.046;21.954;2022-09-09T11:40:28;98842.46;;;22.18;58.63
36138;BME280;22194;50.046;21.954;2022-09-09T11:43:15;98843.35;;;22.19;58.41
36138;BME280;22194;50.046;21.954;2022-09-09T11:45:58;98844.54;;;22.21;58.60
36138;BME280;22194;50.046;21.954;2022-09-09T11:56:48;98847.42;;;22.17;58.29
36138;BME280;22194;50.046;21.954;2022-09-09T11:59:28;98849.41;;;22.16;58.48
36138;BME280;22194;50.046;21.954;2022-09-09T12:02:00;98844.36;;;22.15;58.29
36138;BME280;22194;50.046;21.954;2022-09-09T12:04:40;98842.43;;;22.10;58.64
36138;BME280;22194;50.046;21.954;2022-09-09T12:07:38;98840.36;;;22.08;58.36
36138;BME280;22194;50.046;21.954;2022-09-09T12:10:27;98838.02;;;22.08;58.36
36138;BME280;22194;50.046;21.954;2022-09-09T12:13:23;98830.31;;;22.11;58.49
36138;BME280;22194;50.046;21.954;2022-09-09T12:15:57;98823.14;;;22.20;58.63
36138;BME280;22194;50.046;21.954;2022-09-09T12:18:39;98823.59;;;22.28;58.52
36138;BME280;22194;50.046;21.954;2022-09-09T12:26:42;98817.26;;;22.31;58.43
36138;BME280;22194;50.046;21.954;2022-09-09T12:32:06;98815.33;;;22.47;58.51
36138;BME280;22194;50.046;21.954;2022-09-09T12:34:51;98821.14;;;22.57;58.40
36138;BME280;22194;50.046;21.954;2022-09-09T12:37:41;98815.98;;;22.70;58.18
36138;BME280;22194;50.046;21.954;2022-09-09T12:40:36;98811.86;;;22.88;58.33
36138;BME280;22194;50.046;21.954;2022-09-09T12:43:23;98811.16;;;23.05;58.27
36138;BME280;22194;50.046;21.954;2022-09-09T12:45:59;98806.50;;;23.13;58.10
36138;BME280;22194;50.046;21.954;2022-09-09T12:48:36;98796.61;;;23.17;57.98
36138;BME280;22194;50.046;21.954;2022-09-09T12:51:21;98793.33;;;23.27;58.00
36138;BME280;22194;50.046;21.954;2022-09-09T12:53:59;98791.27;;;23.37;58.05
36138;BME280;22194;50.046;21.954;2022-09-09T12:56:32;98793.18;;;23.47;58.19
36138;BME280;22194;50.046;21.954;2022-09-09T12:59:04;98798.13;;;23.53;57.78
36138;BME280;22194;50.046;21.954;2022-09-09T13:01:36;98799.17;;;23.53;57.93
36138;BME280;22194;50.046;21.954;2022-09-09T13:04:22;98797.81;;;23.45;57.64
36138;BME280;22194;50.046;21.954;2022-09-09T13:06:50;98796.66;;;23.40;57.58
36138;BME280;22194;50.046;21.954;2022-09-09T13:09:23;98794.85;;;23.36;57.41
36138;BME280;22194;50.046;21.954;2022-09-09T13:11:58;98794.18;;;23.29;57.36
36138;BME280;22194;50.046;21.954;2022-09-09T13:14:33;98800.02;;;23.30;57.44
36138;BME280;22194;50.046;21.954;2022-09-09T13:17:19;98802.25;;;23.32;57.45
36138;BME280;22194;50.046;21.954;2022-09-09T13:19:51;98804.80;;;23.33;57.28
36138;BME280;22194;50.046;21.954;2022-09-09T13:22:30;98809.70;;;23.35;57.24
36138;BME280;22194;50.046;21.954;2022-09-09T13:25:25;98809.11;;;23.33;57.28
36138;BME280;22194;50.046;21.954;2022-09-09T13:28:03;98808.96;;;23.30;57.12
36138;BME280;22194;50.046;21.954;2022-09-09T13:30:34;98810.08;;;23.26;57.09
36138;BME280;22194;50.046;21.954;2022-09-09T13:38:17;98810.61;;;23.14;56.93
36138;BME280;22194;50.046;21.954;2022-09-09T13:41:00;98811.55;;;23.06;56.71
36138;BME280;22194;50.046;21.954;2022-09-09T13:43:45;98809.75;;;23.04;56.78
36138;BME280;22194;50.046;21.954;2022-09-09T13:46:25;98805.39;;;23.08;56.63
36138;BME280;22194;50.046;21.954;2022-09-09T13:51:45;98794.40;;;23.12;56.50
36138;BME280;22194;50.046;21.954;2022-09-09T13:54:18;98790.65;;;23.13;56.45
36138;BME280;22194;50.046;21.954;2022-09-09T13:56:50;98792.56;;;23.12;56.49
36138;BME280;22194;50.046;21.954;2022-09-09T13:59:21;98793.75;;;23.09;56.33
36138;BME280;22194;50.046;21.954;2022-09-09T14:01:53;98792.36;;;23.08;56.36
36138;BME280;22194;50.046;21.954;2022-09-09T14:04:21;98793.00;;;23.09;56.35
36138;BME280;22194;50.046;21.954;2022-09-09T14:06:52;98792.96;;;23.10;56.35
36138;BME280;22194;50.046;21.954;2022-09-09T14:09:23;98789.77;;;23.13;56.29
36138;BME280;22194;50.046;21.954;2022-09-09T14:11:51;98785.37;;;23.17;56.37
36138;BME280;22194;50.046;21.954;2022-09-09T14:14:22;98779.70;;;23.19;56.38
36138;BME280;22194;50.046;21.954;2022-09-09T14:16:53;98777.20;;;23.23;56.31
36138;BME280;22194;50.046;21.954;2022-09-09T14:19:25;98775.11;;;23.25;56.31
36138;BME280;22194;50.046;21.954;2022-09-09T14:21:52;98771.86;;;23.19;56.01
36138;BME280;22194;50.046;21.954;2022-09-09T14:24:20;98773.79;;;23.13;56.21
36138;BME280;22194;50.046;21.954;2022-09-09T14:26:48;98776.16;;;23.07;55.92
36138;BME280;22194;50.046;21.954;2022-09-09T14:29:19;98776.14;;;23.00;56.17
36138;BME280;22194;50.046;21.954;2022-09-09T14:31:52;98773.98;;;23.00;56.01
36138;BME280;22194;50.046;21.954;2022-09-09T14:34:20;98767.42;;;23.02;56.13
36138;BME280;22194;50.046;21.954;2022-09-09T14:36:48;98762.11;;;22.98;55.97
36138;BME280;22194;50.046;21.954;2022-09-09T14:39:16;98767.89;;;22.88;56.04
36138;BME280;22194;50.046;21.954;2022-09-09T14:41:47;98771.14;;;22.81;56.11
36138;BME280;22194;50.046;21.954;2022-09-09T14:44:17;98768.64;;;22.79;55.87
36138;BME280;22194;50.046;21.954;2022-09-09T14:46:47;98768.83;;;22.75;55.84
36138;BME280;22194;50.046;21.954;2022-09-09T14:49:24;98769.95;;;22.77;55.96
36138;BME280;22194;50.046;21.954;2022-09-09T14:51:52;98766.91;;;22.78;55.78
36138;BME280;22194;50.046;21.954;2022-09-09T14:54:20;98766.14;;;22.73;55.58
36138;BME280;22194;50.046;21.954;2022-09-09T14:56:53;98770.90;;;22.70;55.90
36138;BME280;22194;50.046;21.954;2022-09-09T14:59:25;98768.58;;;22.70;55.96
36138;BME280;22194;50.046;21.954;2022-09-09T15:01:56;98767.09;;;22.69;55.83